Terminal Aerodrome Forecast
Issued by NWS

Current Version | Previous Version | Text Only | Print | Product List | Glossary On
Versions: 1 2 3 4 5 6 7 8 9 10 11 12 13 14 15 16 17 18 19 20 21 22 23 24 25 26 27
000
FTUS46 KSGX 242320
TAFSAN
TAF
KSAN 242320Z 2500/2606 24010KT P6SM BKN025 BKN030 BKN045
     FM250200 20005KT P6SM OVC035
     FM251800 21010G15KT P6SM SCT025 BKN035
     FM252200 24010G15KT P6SM VCSH OVC030=

USA.gov is the U.S. government's official web portal to all federal, state and local government web resources and services.